8WI1 weather

Dillenburg's Airport
Shawano, Wisconsin, United States

Public forecast

Using degrees Fahrenheit for public forecast. Weather courtesy of forecast.io.

METAR (pilot weather report)

Closest report is Shawano Municipal Airport, 7.5 nm (13.9 km) ENE. Retrieved 2019/08/25 02:35 UTC (0 seconds ago):

KEZS 250235Z AUTO 00000KT 10SM CLR 16/12 A3024 RMK AO2 T01610121

TAF (pilot weather forecast)

Forecast is more than 12 hours old.

Closest forecast is Austin Straubel International Airport, 30.2 nm (56.0 km) ESE. Retrieved 2019/08/24 00:24 UTC (1 day ago):

TAF KGRB 242321Z 2500/2524 15006KT P6SM SCT060 FM250100 13003KT P6SM SKC FM251500 14007KT P6SM SCT035 SCT150